Time;durP1;ratioP1;P1;durP2;ratioP2;P2;SDS_P1;SDS_P2;PMS_P1;PMS_P2;Temp;Humidity;BMP_temperature;BMP_pressure;BME280_temperature;BME280_humidity;BME280_pressure;Samples;Min_cycle;Max_cycle;Signal;HPM_P1;HPM_P2
2023/08/17 00:01:45;;;;;;;6.90;2.17;;;20.90;99.90;;;;;;4952560;29;20372;-86
2023/08/17 00:04:10;;;;;;;6.20;2.30;;;20.80;99.90;;;;;;4953608;29;20067;-87
2023/08/17 00:06:36;;;;;;;4.53;2.47;;;20.90;99.90;;;;;;4950656;29;20051;-87
2023/08/17 00:09:03;;;;;;;5.72;2.00;;;20.80;99.90;;;;;;4952411;29;20612;-85
2023/08/17 00:11:29;;;;;;;6.88;2.20;;;20.80;99.90;;;;;;4954320;28;20023;-87
2023/08/17 00:13:54;;;;;;;5.00;2.10;;;20.80;99.90;;;;;;4946120;28;20540;-87
2023/08/17 00:16:20;;;;;;;5.55;2.42;;;20.80;99.90;;;;;;4950852;29;20114;-87
2023/08/17 00:18:46;;;;;;;6.22;2.40;;;20.80;99.90;;;;;;4953244;29;20019;-88
2023/08/17 00:21:11;;;;;;;3.15;2.10;;;20.80;99.90;;;;;;4953142;28;20027;-86
2023/08/17 00:23:37;;;;;;;5.40;2.38;;;20.90;99.90;;;;;;4951225;29;20078;-87
2023/08/17 00:26:02;;;;;;;5.85;2.05;;;20.80;99.90;;;;;;4951071;29;20114;-83
2023/08/17 00:28:28;;;;;;;4.45;2.10;;;20.90;99.90;;;;;;4953950;28;20026;-86
2023/08/17 00:30:53;;;;;;;7.50;2.60;;;20.90;99.90;;;;;;4952966;29;20042;-87
2023/08/17 00:33:19;;;;;;;3.88;2.20;;;20.90;99.90;;;;;;4952895;28;20027;-87
2023/08/17 00:35:45;;;;;;;5.75;2.30;;;20.80;99.90;;;;;;4952777;29;20046;-88
2023/08/17 00:38:11;;;;;;;4.10;2.38;;;20.80;99.90;;;;;;4951555;28;20055;-84
2023/08/17 00:40:38;;;;;;;4.07;2.10;;;20.70;99.90;;;;;;4952534;28;20027;-87
2023/08/17 00:43:04;;;;;;;4.40;2.00;;;20.70;99.90;;;;;;4952741;28;20023;-85
2023/08/17 00:45:30;;;;;;;3.20;2.30;;;20.70;99.90;;;;;;4953643;28;20023;-87
2023/08/17 00:47:58;;;;;;;7.88;2.10;;;20.70;99.90;;;;;;4952805;29;20460;-87
2023/08/17 00:50:25;;;;;;;5.30;2.10;;;20.70;99.90;;;;;;4952812;29;20020;-87
2023/08/17 00:52:52;;;;;;;3.92;1.90;;;20.70;99.90;;;;;;4951718;28;20369;-87
2023/08/17 00:55:18;;;;;;;4.38;2.10;;;20.60;99.90;;;;;;4952726;29;20083;-87
2023/08/17 00:57:43;;;;;;;3.97;2.13;;;20.70;99.90;;;;;;4951744;28;20613;-87
2023/08/17 01:00:11;;;;;;;10.75;2.50;;;20.60;99.90;;;;;;4951344;28;20404;-88
2023/08/17 01:02:37;;;;;;;8.55;2.42;;;20.70;99.90;;;;;;4952403;28;20406;-87
2023/08/17 01:05:05;;;;;;;5.13;2.17;;;20.50;99.90;;;;;;4953070;29;20036;-83
2023/08/17 01:07:31;;;;;;;;;;;20.50;99.90;;;;;;4952382;28;20130;-87
2023/08/17 01:09:57;;;;;;;4.47;2.20;;;20.50;99.90;;;;;;4951520;29;20406;-88
2023/08/17 01:12:39;;;;;;;3.28;2.10;;;20.40;99.90;;;;;;4952339;28;20438;-86
2023/08/17 01:15:20;;;;;;;4.35;2.17;;;20.40;99.90;;;;;;4952006;29;20019;-85
2023/08/17 01:17:56;;;;;;;6.35;2.20;;;20.40;99.90;;;;;;4951042;29;20035;-83
2023/08/17 01:20:23;;;;;;;3.75;2.42;;;20.40;99.90;;;;;;4949082;29;20435;-83
2023/08/17 01:22:51;;;;;;;3.67;2.22;;;20.40;99.90;;;;;;4952125;28;20392;-87
2023/08/17 01:25:17;;;;;;;7.35;2.13;;;20.40;99.90;;;;;;4952039;28;20099;-87
2023/08/17 01:27:46;;;;;;;4.55;2.20;;;20.40;99.90;;;;;;4951843;28;20115;-87
2023/08/17 01:30:16;;;;;;;3.92;2.33;;;20.40;99.90;;;;;;4952019;29;20035;-86
2023/08/17 01:32:58;;;;;;;4.13;1.90;;;20.30;99.90;;;;;;4949800;28;20103;-85
2023/08/17 01:35:30;;;;;;;2.60;1.77;;;20.40;99.90;;;;;;4950445;29;20047;-87
2023/08/17 01:38:05;;;;;;;3.42;2.13;;;20.40;99.90;;;;;;4951810;28;20655;-88
2023/08/17 01:40:33;;;;;;;5.13;2.00;;;20.40;99.90;;;;;;4952535;28;20035;-87
2023/08/17 01:43:01;;;;;;;7.03;2.38;;;20.30;99.90;;;;;;4951548;28;20049;-83
2023/08/17 01:45:27;;;;;;;4.13;2.13;;;20.30;99.90;;;;;;4951822;28;20061;-86
2023/08/17 01:47:52;;;;;;;3.78;2.03;;;20.20;99.90;;;;;;4950491;28;20480;-87
2023/08/17 01:50:18;;;;;;;4.88;2.17;;;20.20;99.90;;;;;;4950911;29;20090;-87
2023/08/17 01:52:44;;;;;;;4.30;2.20;;;20.20;99.90;;;;;;4951106;28;20023;-87
2023/08/17 01:55:09;;;;;;;4.55;2.20;;;20.20;99.90;;;;;;4951647;29;20111;-87
2023/08/17 01:57:36;;;;;;;4.60;1.98;;;20.20;99.90;;;;;;4952346;28;20439;-84
2023/08/17 02:00:03;;;;;;;4.82;2.00;;;20.10;99.90;;;;;;4952455;29;20114;-87
2023/08/17 02:02:30;;;;;;;4.68;2.10;;;20.10;99.90;;;;;;4950324;29;20082;-88
2023/08/17 02:04:55;;;;;;;4.05;2.17;;;20.20;99.90;;;;;;4949945;29;20420;-87
2023/08/17 02:07:21;;;;;;;5.47;1.90;;;20.10;99.90;;;;;;4948981;29;20054;-87
2023/08/17 02:09:47;;;;;;;2.95;1.90;;;20.10;99.90;;;;;;4930762;29;20051;-87
2023/08/17 02:12:12;;;;;;;7.03;1.92;;;20.10;99.90;;;;;;4931971;29;20108;-83
2023/08/17 02:14:38;;;;;;;5.88;1.80;;;20.20;99.90;;;;;;4932065;29;20098;-82
2023/08/17 02:17:05;;;;;;;6.03;2.53;;;20.10;99.90;;;;;;4946046;29;20023;-87
2023/08/17 02:19:31;;;;;;;3.42;1.80;;;20.00;99.90;;;;;;4950152;28;20043;-87
2023/08/17 02:21:57;;;;;;;5.75;2.10;;;20.10;99.90;;;;;;4951258;28;20015;-83
2023/08/17 02:24:22;;;;;;;2.47;1.80;;;20.10;99.90;;;;;;4950257;29;20038;-83
2023/08/17 02:26:48;;;;;;;4.32;1.80;;;20.10;99.90;;;;;;4949624;28;20565;-88
2023/08/17 02:29:13;;;;;;;2.55;2.00;;;20.10;99.90;;;;;;4951053;28;20035;-87
2023/08/17 02:31:39;;;;;;;3.72;1.90;;;20.10;99.90;;;;;;4948486;29;20023;-83
2023/08/17 02:34:05;;;;;;;3.58;1.88;;;20.10;99.90;;;;;;4947514;29;20523;-82
2023/08/17 02:36:31;;;;;;;2.28;1.77;;;20.10;99.90;;;;;;4947640;29;20039;-87
2023/08/17 02:38:57;;;;;;;4.93;2.10;;;20.00;99.90;;;;;;4944266;28;20114;-87
2023/08/17 02:41:23;;;;;;;2.63;1.90;;;20.00;99.90;;;;;;4946865;29;20054;-86
2023/08/17 02:43:48;;;;;;;3.08;1.60;;;20.00;99.90;;;;;;4950812;29;20550;-83
2023/08/17 02:46:15;;;;;;;4.85;1.95;;;20.00;99.90;;;;;;4950843;29;20027;-86
2023/08/17 02:48:40;;;;;;;3.28;1.77;;;20.00;99.90;;;;;;4950825;28;20024;-82
2023/08/17 02:51:06;;;;;;;2.60;1.90;;;20.00;99.90;;;;;;4951502;29;20419;-84
2023/08/17 02:53:32;;;;;;;4.05;2.10;;;20.00;99.90;;;;;;4950756;29;20055;-85
2023/08/17 02:55:57;;;;;;;3.88;1.95;;;20.00;99.90;;;;;;4950528;28;20079;-83
2023/08/17 02:58:23;;;;;;;2.88;1.83;;;20.00;99.90;;;;;;4949760;29;20023;-82
2023/08/17 03:00:51;;;;;;;3.25;1.90;;;20.00;99.90;;;;;;4947902;29;20027;-82
2023/08/17 03:03:17;;;;;;;2.88;1.70;;;19.90;99.90;;;;;;4950493;28;20008;-85
2023/08/17 03:05:42;;;;;;;3.47;1.80;;;19.90;99.90;;;;;;4948280;29;20027;-84
2023/08/17 03:08:08;;;;;;;4.85;2.00;;;19.90;99.90;;;;;;4948632;29;20019;-83
2023/08/17 03:10:34;;;;;;;3.00;2.00;;;19.80;99.90;;;;;;4945747;28;20043;-82
2023/08/17 03:12:59;;;;;;;6.20;1.98;;;19.80;99.90;;;;;;4947277;28;20760;-84
2023/08/17 03:15:25;;;;;;;1.95;1.70;;;19.70;99.90;;;;;;4948836;29;20117;-86
2023/08/17 03:17:51;;;;;;;4.03;1.60;;;19.80;99.90;;;;;;4948189;28;20094;-82
2023/08/17 03:20:16;;;;;;;5.10;2.00;;;19.70;99.90;;;;;;4945471;29;20034;-82
2023/08/17 03:22:42;;;;;;;2.25;2.05;;;19.60;99.90;;;;;;4943366;29;20500;-83
2023/08/17 03:25:08;;;;;;;3.72;1.70;;;19.60;99.90;;;;;;4946186;29;20114;-86
2023/08/17 03:27:34;;;;;;;3.78;1.75;;;19.60;99.90;;;;;;4944207;28;20507;-81
2023/08/17 03:29:59;;;;;;;4.65;1.80;;;19.60;99.90;;;;;;4947538;28;20023;-81
2023/08/17 03:32:25;;;;;;;3.60;1.65;;;19.60;99.90;;;;;;4947814;28;20058;-82
2023/08/17 03:34:50;;;;;;;3.90;2.00;;;19.60;99.90;;;;;;4945453;29;20027;-83
2023/08/17 03:37:16;;;;;;;2.95;1.75;;;19.50;99.90;;;;;;4947120;28;20395;-84
2023/08/17 03:39:42;;;;;;;2.22;1.70;;;19.60;99.90;;;;;;4950395;28;20079;-82
2023/08/17 03:42:07;;;;;;;3.53;1.70;;;19.50;99.90;;;;;;4954437;28;20035;-86
2023/08/17 03:44:33;;;;;;;1.80;1.63;;;19.50;99.90;;;;;;4954105;28;20101;-83
2023/08/17 03:46:59;;;;;;;3.28;1.90;;;19.50;99.90;;;;;;4952801;29;20031;-86
2023/08/17 03:49:24;;;;;;;3.60;1.85;;;19.50;99.90;;;;;;4953437;28;20499;-86
2023/08/17 03:51:50;;;;;;;5.07;2.03;;;19.50;99.90;;;;;;4953503;29;20020;-86
2023/08/17 03:54:17;;;;;;;3.83;2.00;;;19.40;99.90;;;;;;4949285;29;20485;-82
2023/08/17 03:56:43;;;;;;;3.17;1.70;;;19.40;99.90;;;;;;4939657;29;20419;-82
2023/08/17 03:59:08;;;;;;;2.30;1.80;;;19.40;99.90;;;;;;4953639;29;20505;-84
2023/08/17 04:01:34;;;;;;;4.35;1.90;;;19.40;99.90;;;;;;4954070;28;20110;-81
2023/08/17 04:03:59;;;;;;;3.03;2.10;;;19.40;99.90;;;;;;4952929;29;20030;-85
2023/08/17 04:06:25;;;;;;;3.17;2.00;;;19.40;99.90;;;;;;4948049;28;20027;-82
2023/08/17 04:08:51;;;;;;;3.95;2.00;;;19.40;99.90;;;;;;4952334;28;20035;-87
2023/08/17 04:11:16;;;;;;;3.47;1.90;;;19.30;99.90;;;;;;4951696;29;20050;-86
2023/08/17 04:13:42;;;;;;;3.22;2.00;;;19.30;99.90;;;;;;4954155;29;20031;-87
2023/08/17 04:16:07;;;;;;;3.50;2.00;;;19.30;99.90;;;;;;4947240;28;20039;-88
2023/08/17 04:18:33;;;;;;;4.70;1.80;;;19.30;99.90;;;;;;4950772;29;20373;-87
2023/08/17 04:20:58;;;;;;;4.85;1.90;;;19.30;99.90;;;;;;4950391;28;20027;-87
2023/08/17 04:23:24;;;;;;;8.82;1.90;;;19.30;99.90;;;;;;4952092;28;20399;-86
2023/08/17 04:25:50;;;;;;;2.55;1.95;;;19.30;99.90;;;;;;4951549;29;20081;-87
2023/08/17 04:28:15;;;;;;;3.17;1.90;;;19.30;99.90;;;;;;4951550;28;20031;-88
2023/08/17 04:30:41;;;;;;;3.65;2.08;;;19.30;99.90;;;;;;4954170;28;20032;-87
2023/08/17 04:33:07;;;;;;;3.78;1.80;;;19.20;99.90;;;;;;4951685;28;20023;-87
2023/08/17 04:35:33;;;;;;;5.25;2.20;;;19.20;99.90;;;;;;4952710;28;20031;-88
2023/08/17 04:37:59;;;;;;;4.00;1.90;;;19.20;99.90;;;;;;4951392;28;20423;-87
2023/08/17 04:40:25;;;;;;;4.10;1.90;;;19.20;99.90;;;;;;4953228;28;20480;-87
2023/08/17 04:42:51;;;;;;;3.95;2.10;;;19.20;99.90;;;;;;4951231;29;20031;-89
2023/08/17 04:45:17;;;;;;;3.17;2.30;;;19.20;99.90;;;;;;4941068;28;20058;-86
2023/08/17 04:47:42;;;;;;;4.28;2.00;;;19.10;99.90;;;;;;4950177;29;20054;-87
2023/08/17 04:50:08;;;;;;;5.88;1.95;;;19.10;99.90;;;;;;4946159;29;20027;-86
2023/08/17 04:52:34;;;;;;;3.65;2.13;;;19.10;99.90;;;;;;4951307;28;20034;-86
2023/08/17 04:54:59;;;;;;;4.03;2.30;;;19.10;99.90;;;;;;4939237;28;20024;-89
2023/08/17 04:57:26;;;;;;;3.28;2.10;;;19.10;99.90;;;;;;4950887;28;20058;-87
2023/08/17 04:59:51;;;;;;;3.55;2.13;;;19.20;99.90;;;;;;4946975;29;20051;-88
2023/08/17 05:02:17;;;;;;;3.22;1.88;;;19.20;99.90;;;;;;4950064;29;20126;-89
2023/08/17 05:04:43;;;;;;;2.45;1.90;;;19.20;99.90;;;;;;4952161;29;20059;-89
2023/08/17 05:07:08;;;;;;;2.28;1.92;;;19.10;99.90;;;;;;4952725;29;20035;-89
2023/08/17 05:09:34;;;;;;;4.00;2.00;;;19.10;99.90;;;;;;4952578;29;20487;-88
2023/08/17 05:12:00;;;;;;;4.25;2.28;;;19.10;99.90;;;;;;4952649;28;20028;-89
2023/08/17 05:14:25;;;;;;;4.32;2.20;;;19.00;99.90;;;;;;4953012;28;20034;-90
2023/08/17 05:16:51;;;;;;;6.55;2.00;;;18.90;99.90;;;;;;4950548;29;20043;-88
2023/08/17 05:19:16;;;;;;;4.25;2.00;;;18.90;99.90;;;;;;4952545;29;20051;-83
2023/08/17 05:21:42;;;;;;;3.17;2.20;;;19.00;99.90;;;;;;4952930;28;20122;-89
2023/08/17 05:24:08;;;;;;;8.18;2.22;;;19.00;99.90;;;;;;4952232;29;20019;-88
2023/08/17 05:26:33;;;;;;;5.78;2.30;;;19.00;99.90;;;;;;4951306;28;20042;-83
2023/08/17 05:28:59;;;;;;;3.72;2.22;;;19.10;99.90;;;;;;4952079;29;20102;-83
2023/08/17 05:31:24;;;;;;;4.68;2.70;;;19.10;99.90;;;;;;4952056;29;20031;-83
2023/08/17 05:33:50;;;;;;;3.72;2.20;;;19.20;99.90;;;;;;4949676;29;20027;-83
2023/08/17 05:36:16;;;;;;;2.92;1.98;;;19.20;99.90;;;;;;4952076;29;20495;-83
2023/08/17 05:38:41;;;;;;;4.40;2.15;;;19.20;99.90;;;;;;4951801;29;20158;-83
2023/08/17 05:41:07;;;;;;;7.07;2.40;;;19.20;99.90;;;;;;4951878;29;20240;-82
2023/08/17 05:43:32;;;;;;;5.00;1.98;;;19.20;99.90;;;;;;4951739;29;20030;-83
2023/08/17 05:46:02;;;;;;;3.20;2.47;;;19.20;99.90;;;;;;4951583;28;20023;-83
2023/08/17 05:48:28;;;;;;;4.97;2.08;;;19.20;99.90;;;;;;4949871;28;20190;-83
2023/08/17 05:50:55;;;;;;;4.40;2.08;;;19.30;99.90;;;;;;4950818;28;20090;-83
2023/08/17 05:53:21;;;;;;;3.30;1.90;;;19.30;99.90;;;;;;4951645;28;20019;-83
2023/08/17 05:55:47;;;;;;;4.18;1.92;;;19.30;99.90;;;;;;4952367;29;20061;-83
2023/08/17 05:58:12;;;;;;;2.28;1.90;;;19.30;99.90;;;;;;4951467;29;20126;-83
2023/08/17 06:00:38;;;;;;;2.38;2.00;;;19.30;99.90;;;;;;4951534;29;20348;-83
2023/08/17 06:03:04;;;;;;;6.55;2.13;;;19.30;99.90;;;;;;4950403;29;20034;-83
2023/08/17 06:05:30;;;;;;;3.47;2.42;;;19.40;99.90;;;;;;4951105;29;20019;-83
2023/08/17 06:07:56;;;;;;;2.85;2.03;;;19.40;99.90;;;;;;4951477;28;20115;-83
2023/08/17 06:10:25;;;;;;;4.30;2.10;;;19.50;99.90;;;;;;4951484;29;20051;-83
2023/08/17 06:12:53;;;;;;;5.50;2.30;;;19.60;99.90;;;;;;4951384;28;20106;-83
2023/08/17 06:15:19;;;;;;;3.67;2.75;;;19.60;99.90;;;;;;4952015;28;20031;-83
2023/08/17 06:17:45;;;;;;;6.22;2.80;;;19.60;99.90;;;;;;4950919;29;20035;-83
2023/08/17 06:20:11;;;;;;;10.70;2.90;;;19.60;99.90;;;;;;4951340;29;20400;-83
2023/08/17 06:22:37;;;;;;;4.10;2.55;;;19.70;99.90;;;;;;4951192;28;20496;-83
2023/08/17 06:25:05;;;;;;;6.03;2.60;;;19.80;99.90;;;;;;4951158;29;20034;-86
2023/08/17 06:27:30;;;;;;;6.43;2.90;;;19.90;99.90;;;;;;4951313;29;20019;-89
2023/08/17 06:29:56;;;;;;;7.25;3.03;;;20.00;99.90;;;;;;4951139;29;20027;-85
2023/08/17 06:32:21;;;;;;;4.18;2.72;;;20.10;99.90;;;;;;4951122;29;20031;-85
2023/08/17 06:34:47;;;;;;;7.15;2.90;;;20.10;99.90;;;;;;4950591;28;20056;-90
2023/08/17 06:37:13;;;;;;;3.13;2.70;;;20.20;99.90;;;;;;4951044;28;20094;-84
2023/08/17 06:39:38;;;;;;;4.13;2.90;;;20.30;99.90;;;;;;4950986;29;20020;-83
2023/08/17 06:42:04;;;;;;;3.90;2.80;;;20.30;99.90;;;;;;4951168;29;20027;-88
2023/08/17 06:44:30;;;;;;;7.88;3.35;;;20.30;99.90;;;;;;4951124;29;20023;-87
2023/08/17 06:46:56;;;;;;;5.65;2.88;;;20.40;99.90;;;;;;4951016;29;20035;-87
2023/08/17 06:49:22;;;;;;;4.10;3.05;;;20.50;99.90;;;;;;4950187;29;20031;-88
2023/08/17 06:51:48;;;;;;;4.93;2.80;;;20.50;99.90;;;;;;4951856;29;20031;-87
2023/08/17 06:54:13;;;;;;;3.28;2.70;;;20.60;99.90;;;;;;4950991;28;20027;-85
2023/08/17 06:56:39;;;;;;;4.35;2.75;;;20.60;99.90;;;;;;4950889;28;20114;-85
2023/08/17 06:59:05;;;;;;;5.10;2.92;;;20.60;99.90;;;;;;4950998;28;20027;-88
2023/08/17 07:01:30;;;;;;;6.10;2.92;;;20.70;99.90;;;;;;4950985;29;20467;-87
2023/08/17 07:03:57;;;;;;;5.70;2.97;;;20.80;99.90;;;;;;4949413;29;20031;-87
2023/08/17 07:06:23;;;;;;;6.22;3.00;;;20.80;99.90;;;;;;4950602;29;20114;-83
2023/08/17 07:08:49;;;;;;;4.97;2.90;;;20.90;99.90;;;;;;4951725;28;20028;-86
2023/08/17 07:11:15;;;;;;;4.30;2.90;;;20.90;99.90;;;;;;4950700;28;20510;-85
2023/08/17 07:13:40;;;;;;;27.45;3.53;;;21.00;99.90;;;;;;4950808;29;20031;-87
2023/08/17 07:16:06;;;;;;;5.45;3.05;;;21.10;99.90;;;;;;4950501;28;20099;-84
2023/08/17 07:18:31;;;;;;;3.95;2.70;;;21.10;99.90;;;;;;4949841;28;20031;-87
2023/08/17 07:20:57;;;;;;;6.82;3.22;;;21.10;99.90;;;;;;4950055;29;20042;-85
2023/08/17 07:23:23;;;;;;;7.60;3.65;;;21.20;99.90;;;;;;4951473;29;20062;-84
2023/08/17 07:25:49;;;;;;;4.07;3.10;;;21.30;99.90;;;;;;4950166;29;20036;-89
2023/08/17 07:28:15;;;;;;;4.55;3.13;;;21.40;99.90;;;;;;4950490;29;20054;-84
2023/08/17 07:30:41;;;;;;;5.72;3.28;;;21.50;99.90;;;;;;4950639;29;20031;-87
2023/08/17 07:33:07;;;;;;;5.18;3.50;;;21.50;99.90;;;;;;4949850;28;20019;-85
2023/08/17 07:35:32;;;;;;;6.22;3.53;;;21.60;99.90;;;;;;4949260;29;20093;-86
2023/08/17 07:37:58;;;;;;;4.70;3.30;;;21.70;99.90;;;;;;4951069;28;20380;-88
2023/08/17 07:40:24;;;;;;;3.75;3.10;;;21.80;99.90;;;;;;4951394;28;20464;-86
2023/08/17 07:42:49;;;;;;;4.55;3.38;;;21.80;99.90;;;;;;4951436;29;20047;-86
2023/08/17 07:45:15;;;;;;;6.63;3.33;;;21.90;99.90;;;;;;4950579;29;20448;-86
2023/08/17 07:47:41;;;;;;;6.97;3.20;;;22.00;99.90;;;;;;4950595;28;20031;-84
2023/08/17 07:50:08;;;;;;;8.25;3.95;;;22.00;99.90;;;;;;4950774;28;20027;-87
2023/08/17 07:52:34;;;;;;;8.48;3.53;;;22.10;99.90;;;;;;4953978;28;20523;-87
2023/08/17 07:54:59;;;;;;;5.30;3.45;;;22.20;99.90;;;;;;4953776;29;20108;-85
2023/08/17 07:57:25;;;;;;;5.38;3.50;;;22.30;99.90;;;;;;4954206;29;20031;-83
2023/08/17 07:59:51;;;;;;;6.45;3.70;;;22.30;99.90;;;;;;4953511;28;20032;-83
2023/08/17 08:02:17;;;;;;;4.60;3.90;;;22.40;99.90;;;;;;4953832;28;20032;-84
2023/08/17 08:04:43;;;;;;;5.15;3.33;;;22.40;99.90;;;;;;4952370;29;20444;-84
2023/08/17 08:07:09;;;;;;;7.15;3.70;;;22.50;99.90;;;;;;4953584;28;20523;-84
2023/08/17 08:09:35;;;;;;;6.50;3.60;;;22.50;99.90;;;;;;4951661;29;20035;-84
2023/08/17 08:12:01;;;;;;;5.85;3.80;;;22.70;99.90;;;;;;4952452;29;20015;-88
2023/08/17 08:14:26;;;;;;;7.20;3.65;;;22.80;99.90;;;;;;4953521;28;20039;-83
2023/08/17 08:16:52;;;;;;;4.93;4.07;;;22.90;99.90;;;;;;4954294;28;20035;-87
2023/08/17 08:19:17;;;;;;;7.38;4.00;;;23.00;99.90;;;;;;4952279;29;20059;-86
2023/08/17 08:21:43;;;;;;;6.07;3.55;;;23.10;99.90;;;;;;4953456;28;20031;-89
2023/08/17 08:24:09;;;;;;;6.60;3.70;;;23.30;99.90;;;;;;4952416;28;20038;-87
2023/08/17 08:26:34;;;;;;;5.55;3.95;;;23.40;99.90;;;;;;4952362;29;20035;-86
2023/08/17 08:29:00;;;;;;;7.03;3.42;;;23.40;99.90;;;;;;4953225;29;20034;-86
2023/08/17 08:31:26;;;;;;;4.75;3.70;;;23.50;99.90;;;;;;4952909;28;20026;-88
2023/08/17 08:33:52;;;;;;;7.15;3.65;;;23.60;99.90;;;;;;4954068;28;20491;-88
2023/08/17 08:36:18;;;;;;;6.50;3.78;;;23.70;99.90;;;;;;4953145;28;20039;-90
2023/08/17 08:38:44;;;;;;;5.28;3.70;;;23.90;99.90;;;;;;4953082;28;20015;-87
2023/08/17 08:41:11;;;;;;;9.00;3.90;;;24.00;99.90;;;;;;4952449;28;20114;-85
2023/08/17 08:43:38;;;;;;;8.23;4.40;;;24.10;99.90;;;;;;4953059;28;20027;-85
2023/08/17 08:46:04;;;;;;;9.73;4.28;;;24.20;99.90;;;;;;4953080;28;20039;-89
2023/08/17 08:48:32;;;;;;;9.00;3.70;;;24.30;99.90;;;;;;4952978;29;20027;-84
2023/08/17 08:51:00;;;;;;;6.57;3.67;;;24.40;99.90;;;;;;4953579;29;20031;-87
2023/08/17 08:53:37;;;;;;;9.32;4.20;;;24.50;99.90;;;;;;4953650;28;20103;-86
2023/08/17 08:56:04;;;;;;;6.30;3.60;;;24.60;99.90;;;;;;4952038;29;20403;-87
2023/08/17 08:58:32;;;;;;;6.47;3.90;;;24.80;99.90;;;;;;4952722;28;20031;-89
2023/08/17 09:01:00;;;;;;;7.10;4.10;;;24.90;99.90;;;;;;4952401;28;20472;-84
2023/08/17 09:03:26;;;;;;;;;;;24.90;99.90;;;;;;4953439;28;20023;-84
2023/08/17 09:05:53;;;;;;;8.13;3.75;;;25.00;99.90;;;;;;4952634;29;20393;-84
2023/08/17 09:08:22;;;;;;;12.73;4.07;;;25.00;99.90;;;;;;4952372;29;20260;-86
2023/08/17 09:10:49;;;;;;;5.80;3.78;;;25.10;99.90;;;;;;4950217;29;20030;-84
2023/08/17 09:13:15;;;;;;;5.30;3.45;;;25.10;99.90;;;;;;4949663;29;20034;-84
2023/08/17 09:15:41;;;;;;;5.72;4.03;;;25.30;99.90;;;;;;4936802;29;20043;-84
2023/08/17 09:18:07;;;;;;;6.72;3.92;;;25.40;99.90;;;;;;4952387;28;20499;-84
2023/08/17 09:20:46;;;;;;;5.15;3.67;;;25.50;99.90;;;;;;4950989;29;20114;-83
2023/08/17 09:23:16;;;;;;;6.00;3.78;;;25.60;99.90;;;;;;4952262;29;20546;-84
2023/08/17 09:25:43;;;;;;;9.32;3.88;;;25.60;99.90;;;;;;4951004;29;20023;-89
2023/08/17 09:28:10;;;;;;;9.00;3.53;;;25.70;99.90;;;;;;4952241;28;20484;-87
2023/08/17 09:30:57;;;;;;;8.48;3.88;;;25.80;99.90;;;;;;4952211;28;20098;-86
2023/08/17 09:33:25;;;;;;;5.10;3.78;;;25.80;99.90;;;;;;4952179;29;20027;-84
2023/08/17 09:35:52;;;;;;;8.73;3.47;;;25.90;99.90;;;;;;4951779;29;20042;-86
2023/08/17 09:38:18;;;;;;;9.23;4.25;;;26.00;99.90;;;;;;4952044;28;20472;-89
2023/08/17 09:40:45;;;;;;;7.30;3.40;;;26.00;99.90;;;;;;4949757;28;20114;-84
2023/08/17 09:43:10;;;;;;;4.32;3.70;;;26.10;99.90;;;;;;4950634;29;20081;-84
2023/08/17 09:45:38;;;;;;;6.32;3.72;;;26.20;99.90;;;;;;4951957;28;20098;-84
2023/08/17 09:48:04;;;;;;;;;;;26.30;99.90;;;;;;4952198;29;20026;-84
2023/08/17 09:50:29;;;;;;;9.45;3.80;;;26.40;99.90;;;;;;4951695;29;19914;-84
2023/08/17 09:52:55;;;;;;;6.20;4.05;;;26.40;99.90;;;;;;4950755;28;20043;-84
2023/08/17 09:55:24;;;;;;;8.88;3.92;;;26.40;99.90;;;;;;4951569;28;20074;-84
2023/08/17 09:57:51;;;;;;;7.72;3.70;;;26.40;99.90;;;;;;4951141;28;20503;-83
2023/08/17 10:00:20;;;;;;;7.97;3.50;;;26.40;99.90;;;;;;4950925;29;20035;-84
2023/08/17 10:02:51;;;;;;;9.57;3.80;;;26.40;99.90;;;;;;4951453;28;20015;-84
2023/08/17 10:05:18;;;;;;;4.97;3.40;;;26.50;99.90;;;;;;4948583;29;20023;-84
2023/08/17 10:07:50;;;;;;;6.65;3.47;;;26.50;99.90;;;;;;4950838;29;20066;-84
2023/08/17 10:10:21;;;;;;;7.30;3.60;;;26.50;99.90;;;;;;4951497;28;20031;-83
2023/08/17 10:13:08;;;;;;;7.55;3.83;;;26.40;99.90;;;;;;4949699;28;20034;-84
2023/08/17 10:15:56;;;;;;;5.43;3.88;;;26.50;99.90;;;;;;4949421;29;20054;-84
2023/08/17 10:18:27;;;;;;;5.85;3.80;;;26.50;99.90;;;;;;4949935;29;20718;-84
2023/08/17 10:21:06;;;;;;;7.05;3.53;;;26.50;99.90;;;;;;4951393;29;20031;-84
2023/08/17 10:23:32;;;;;;;8.00;3.55;;;26.60;99.90;;;;;;4952211;28;20027;-84
2023/08/17 10:26:02;;;;;;;6.68;3.60;;;26.70;99.90;;;;;;4952054;28;20505;-84
2023/08/17 10:28:30;;;;;;;7.03;3.47;;;26.90;99.90;;;;;;4951691;28;20399;-83
2023/08/17 10:30:56;;;;;;;7.78;3.50;;;27.00;99.90;;;;;;4949210;28;20098;-84
2023/08/17 10:33:22;;;;;;;10.60;3.80;;;27.10;99.90;;;;;;4951210;29;20050;-84
2023/08/17 10:35:48;;;;;;;5.72;3.45;;;27.20;99.90;;;;;;4950966;29;20035;-84
2023/08/17 10:38:16;;;;;;;10.50;3.33;;;27.30;99.90;;;;;;4951096;28;20038;-84
2023/08/17 10:40:42;;;;;;;;;;;27.30;99.90;;;;;;4951402;28;20051;-84
2023/08/17 10:43:07;;;;;;;6.63;3.60;;;27.40;99.90;;;;;;4949685;29;20000;-84
2023/08/17 10:45:38;;;;;;;5.47;3.30;;;27.30;99.90;;;;;;4951095;29;20086;-84
2023/08/17 10:48:07;;;;;;;5.88;3.33;;;27.40;99.90;;;;;;4950317;29;20492;-84
2023/08/17 10:50:33;;;;;;;5.18;3.08;;;27.40;99.90;;;;;;4950517;29;20035;-84
2023/08/17 10:53:11;;;;;;;5.95;3.90;;;27.40;99.90;;;;;;4950974;28;20023;-84
2023/08/17 10:55:51;;;;;;;6.13;3.33;;;27.40;99.90;;;;;;4951079;28;20042;-88
2023/08/17 10:58:16;;;;;;;5.30;3.28;;;27.40;99.90;;;;;;4951025;28;20448;-87
2023/08/17 11:00:43;;;;;;;5.45;3.50;;;27.30;99.90;;;;;;4949481;29;20035;-90
2023/08/17 11:03:17;;;;;;;6.90;3.47;;;27.50;99.90;;;;;;4950963;28;20074;-87
2023/08/17 11:05:55;;;;;;;8.35;3.20;;;27.60;99.90;;;;;;4940991;28;20035;-87
2023/08/17 11:08:40;;;;;;;7.03;3.22;;;27.70;99.90;;;;;;4932033;29;20086;-87
2023/08/17 11:11:13;;;;;;;8.88;3.80;;;27.90;99.90;;;;;;4937679;29;20571;-85
2023/08/17 11:13:41;;;;;;;7.25;3.15;;;28.00;99.90;;;;;;4950884;29;20019;-87
2023/08/17 11:16:08;;;;;;;;;;;27.80;99.90;;;;;;4951160;28;20046;-84
2023/08/17 11:18:34;;;;;;;6.53;3.53;;;27.90;99.90;;;;;;4951718;29;19910;-87
2023/08/17 11:21:05;;;;;;;6.72;3.42;;;27.90;99.90;;;;;;4949557;29;20070;-88
2023/08/17 11:23:32;;;;;;;5.97;3.28;;;28.00;99.90;;;;;;4951018;28;20054;-84
2023/08/17 11:25:58;;;;;;;5.63;2.53;;;28.10;99.90;;;;;;4953314;29;20025;-84
2023/08/17 11:28:24;;;;;;;5.50;2.95;;;28.30;99.90;;;;;;4953612;29;20106;-84
2023/08/17 11:31:01;;;;;;;8.07;3.00;;;28.30;99.90;;;;;;4954418;28;20543;-84
2023/08/17 11:33:27;;;;;;;7.28;3.00;;;28.30;99.90;;;;;;4954231;28;20704;-84
2023/08/17 11:35:57;;;;;;;14.10;2.97;;;28.30;99.90;;;;;;4952679;29;20050;-89
2023/08/17 11:38:23;;;;;;;4.00;2.92;;;28.10;99.90;;;;;;4954221;28;20054;-89
2023/08/17 11:40:52;;;;;;;4.15;3.13;;;28.00;99.90;;;;;;4954194;28;20059;-90
2023/08/17 11:43:20;;;;;;;5.95;3.22;;;28.10;99.90;;;;;;4954242;29;20416;-88
2023/08/17 11:45:46;;;;;;;8.88;3.53;;;28.10;99.90;;;;;;4954068;29;20544;-89
2023/08/17 11:48:11;;;;;;;3.88;2.78;;;28.10;99.90;;;;;;4954050;28;20111;-89
2023/08/17 11:50:39;;;;;;;6.70;2.90;;;28.00;99.90;;;;;;4953312;28;20034;-84
2023/08/17 11:53:05;;;;;;;;;;;28.10;99.90;;;;;;4955217;29;20019;-88
2023/08/17 11:55:30;;;;;;;5.18;3.15;;;28.10;99.90;;;;;;4953804;29;19915;-88
2023/08/17 11:57:56;;;;;;;7.60;3.25;;;28.00;99.90;;;;;;4953972;29;20038;-90
2023/08/17 12:00:22;;;;;;;4.38;3.00;;;28.00;99.90;;;;;;4953768;29;20027;-89
2023/08/17 12:02:49;;;;;;;3.70;3.03;;;28.10;99.90;;;;;;4953728;28;20047;-89
2023/08/17 12:05:23;;;;;;;3.73;2.87;;;28.00;99.90;;;;;;4952798;28;20023;-86
2023/08/17 12:07:50;;;;;;;6.57;2.90;;;27.90;99.90;;;;;;4952295;29;20031;-88
2023/08/17 12:10:17;;;;;;;8.10;3.13;;;27.90;99.90;;;;;;4953764;28;20037;-89
2023/08/17 12:12:42;;;;;;;3.85;2.85;;;27.90;99.90;;;;;;4953573;29;20062;-88
2023/08/17 12:15:11;;;;;;;4.55;3.10;;;28.00;99.90;;;;;;4952986;29;20059;-89
2023/08/17 12:17:45;;;;;;;5.65;3.25;;;28.10;99.90;;;;;;4954255;28;20058;-89
2023/08/17 12:20:19;;;;;;;6.10;3.05;;;28.20;99.90;;;;;;4950494;28;20562;-88
2023/08/17 12:22:48;;;;;;;8.30;3.30;;;28.30;99.90;;;;;;4952661;29;20443;-86
2023/08/17 12:25:14;;;;;;;4.13;2.72;;;28.30;99.90;;;;;;4953327;29;20031;-89
2023/08/17 12:27:40;;;;;;;7.20;2.88;;;28.30;99.90;;;;;;4953398;28;20030;-84
2023/08/17 12:30:25;;;;;;;6.60;2.85;;;28.40;99.90;;;;;;4954153;28;20016;-90
2023/08/17 12:32:51;;;;;;;3.70;2.70;;;28.60;99.90;;;;;;4953146;28;20049;-87
2023/08/17 12:35:17;;;;;;;5.47;2.72;;;28.60;99.90;;;;;;4950813;28;20490;-88
2023/08/17 12:37:42;;;;;;;5.35;2.72;;;28.70;99.90;;;;;;4953088;29;20027;-88
2023/08/17 12:40:09;;;;;;;5.95;3.05;;;28.70;99.90;;;;;;4953914;29;20027;-89
2023/08/17 12:42:35;;;;;;;5.13;2.70;;;28.70;99.90;;;;;;4952101;28;20369;-89
2023/08/17 12:45:01;;;;;;;4.65;2.90;;;28.60;99.90;;;;;;4953193;28;20510;-90
2023/08/17 12:47:26;;;;;;;3.17;2.67;;;28.60;99.90;;;;;;4952961;28;20042;-87